createdAt,value
2022-12-13T00:00:10.091Z,63.90
2022-12-13T00:01:10.078Z,67.60
2022-12-13T00:02:10.082Z,68.10
2022-12-13T00:03:09.997Z,63.50
2022-12-13T00:04:10.029Z,72.30
2022-12-13T00:05:09.944Z,66.20
2022-12-13T00:06:09.913Z,72.60
2022-12-13T00:07:09.889Z,77.70
2022-12-13T00:08:09.884Z,77.00
2022-12-13T00:09:09.835Z,83.90
2022-12-13T00:10:09.806Z,85.60
2022-12-13T00:11:09.771Z,89.10
2022-12-13T00:12:09.751Z,82.90
2022-12-13T00:13:09.735Z,84.10
2022-12-13T00:14:09.699Z,85.10
2022-12-13T00:15:09.663Z,85.30
2022-12-13T00:16:09.677Z,88.40
2022-12-13T00:17:09.637Z,76.80
2022-12-13T00:18:09.584Z,86.80
2022-12-13T00:19:09.551Z,87.30
2022-12-13T00:20:09.526Z,72.70
2022-12-13T00:21:09.497Z,87.20
2022-12-13T00:22:09.468Z,75.60
2022-12-13T00:23:09.438Z,93.60
2022-12-13T00:24:09.415Z,76.60
2022-12-13T00:25:09.387Z,74.60
2022-12-13T00:26:09.358Z,74.10
2022-12-13T00:27:09.324Z,85.80
2022-12-13T00:28:09.302Z,103.80
2022-12-13T00:29:09.267Z,78.50
2022-12-13T00:30:09.244Z,89.30
2022-12-13T00:31:43.570Z,78.30
2022-12-13T00:32:09.213Z,89.30
2022-12-13T00:33:09.186Z,146.70
2022-12-13T00:34:09.130Z,110.10
2022-12-13T00:35:09.099Z,150.00
2022-12-13T00:36:09.072Z,96.90
2022-12-13T00:37:09.047Z,87.30
2022-12-13T00:38:09.015Z,156.50
2022-12-13T00:39:08.987Z,84.10
2022-12-13T00:40:08.965Z,84.00
2022-12-13T00:41:08.931Z,133.10
2022-12-13T00:42:08.906Z,97.60
2022-12-13T00:43:08.872Z,97.70
2022-12-13T00:44:08.845Z,80.70
2022-12-13T00:45:08.821Z,93.70
2022-12-13T00:46:08.817Z,83.10
2022-12-13T00:47:08.766Z,71.00
2022-12-13T00:48:08.729Z,85.40
2022-12-13T00:49:08.720Z,75.60
2022-12-13T00:50:08.681Z,67.70
2022-12-13T00:51:08.650Z,66.80
2022-12-13T00:52:08.624Z,67.90
2022-12-13T00:53:08.590Z,70.40
2022-12-13T00:54:08.584Z,73.70
2022-12-13T00:55:08.540Z,70.10
2022-12-13T00:56:08.515Z,72.40
2022-12-13T00:57:08.490Z,69.20
2022-12-13T00:58:08.447Z,63.50
2022-12-13T00:59:08.425Z,67.20
2022-12-13T01:00:08.402Z,66.40
2022-12-13T01:01:08.433Z,68.90
2022-12-13T01:02:08.341Z,68.50
2022-12-13T01:03:08.365Z,72.90
2022-12-13T01:04:08.274Z,67.90
2022-12-13T01:05:08.275Z,67.50
2022-12-13T01:06:16.393Z,70.00
2022-12-13T01:07:08.195Z,68.10
2022-12-13T01:08:08.192Z,66.60
2022-12-13T01:09:08.148Z,68.30
2022-12-13T01:10:08.109Z,68.30
2022-12-13T01:11:08.088Z,64.70
2022-12-13T01:12:08.053Z,68.80
2022-12-13T01:13:08.028Z,65.90
2022-12-13T01:14:07.997Z,65.00
2022-12-13T01:15:07.978Z,66.10
2022-12-13T01:16:07.941Z,71.00
2022-12-13T01:17:07.999Z,67.70
2022-12-13T01:18:07.882Z,65.80
2022-12-13T01:19:07.860Z,74.90
2022-12-13T01:20:07.826Z,91.20
2022-12-13T01:21:07.821Z,80.90
2022-12-13T01:22:07.774Z,107.30
2022-12-13T01:23:07.741Z,76.80
2022-12-13T01:24:07.718Z,163.50
2022-12-13T01:25:07.692Z,93.30
2022-12-13T01:26:07.657Z,107.80
2022-12-13T01:27:07.632Z,91.00
2022-12-13T01:28:07.603Z,119.40
2022-12-13T01:29:07.574Z,85.20
2022-12-13T01:30:07.547Z,103.50
2022-12-13T01:31:07.555Z,99.40
2022-12-13T01:32:07.484Z,93.30
2022-12-13T01:33:14.518Z,99.10
2022-12-13T01:34:07.424Z,102.30
2022-12-13T01:35:07.400Z,98.70
2022-12-13T01:36:07.379Z,122.70
2022-12-13T01:37:07.685Z,115.30
2022-12-13T01:38:08.220Z,98.20
2022-12-13T01:39:07.738Z,82.10
2022-12-13T01:40:15.926Z,82.60
2022-12-13T01:41:17.051Z,77.00
2022-12-13T01:42:07.197Z,89.80
2022-12-13T01:43:14.564Z,83.40
2022-12-13T01:44:07.136Z,78.00
2022-12-13T01:45:07.114Z,76.00
2022-12-13T01:46:07.119Z,84.50
2022-12-13T01:47:07.055Z,71.30
2022-12-13T01:48:07.028Z,85.90
2022-12-13T01:49:20.020Z,95.60
2022-12-13T01:50:06.972Z,78.80
2022-12-13T01:51:06.948Z,69.90
2022-12-13T01:52:06.909Z,77.50
2022-12-13T01:53:06.911Z,66.20
2022-12-13T01:54:06.852Z,71.20
2022-12-13T01:55:06.826Z,69.80
2022-12-13T01:56:06.800Z,57.00
2022-12-13T01:57:06.768Z,68.10
2022-12-13T01:58:06.740Z,59.10
2022-12-13T01:59:06.718Z,66.30
2022-12-13T02:00:06.683Z,81.30
2022-12-13T02:01:06.684Z,81.20
2022-12-13T02:02:06.628Z,57.10
2022-12-13T02:03:06.594Z,57.60
2022-12-13T02:04:06.566Z,67.40
2022-12-13T02:05:06.603Z,74.20
2022-12-13T02:06:06.515Z,54.90
2022-12-13T02:07:06.487Z,60.60
2022-12-13T02:08:06.492Z,54.90
2022-12-13T02:09:06.460Z,59.60
2022-12-13T02:10:06.393Z,68.00
2022-12-13T02:11:06.372Z,55.90
2022-12-13T02:12:06.335Z,58.80
2022-12-13T02:13:06.322Z,68.20
2022-12-13T02:14:06.278Z,59.00
2022-12-13T02:15:06.255Z,53.40
2022-12-13T02:16:06.307Z,76.20
2022-12-13T02:17:06.195Z,74.50
2022-12-13T02:18:06.162Z,67.50
2022-12-13T02:19:06.142Z,60.90
2022-12-13T02:20:06.112Z,72.30
2022-12-13T02:21:06.085Z,67.80
2022-12-13T02:22:06.051Z,60.80
2022-12-13T02:23:06.028Z,68.60
2022-12-13T02:24:09.062Z,59.20
2022-12-13T02:25:05.991Z,67.60
2022-12-13T02:26:05.938Z,59.50
2022-12-13T02:27:05.931Z,54.50
2022-12-13T02:28:30.814Z,66.70
2022-12-13T02:29:05.853Z,61.20
2022-12-13T02:30:05.821Z,64.20
2022-12-13T02:31:05.853Z,63.60
2022-12-13T02:32:05.774Z,77.40
2022-12-13T02:33:05.744Z,50.60
2022-12-13T02:34:05.716Z,56.60
2022-12-13T02:35:05.681Z,72.80
2022-12-13T02:36:05.654Z,65.90
2022-12-13T02:37:05.627Z,75.30
2022-12-13T02:38:05.595Z,59.50
2022-12-13T02:39:05.568Z,56.70
2022-12-13T02:40:05.533Z,67.90
2022-12-13T02:41:05.549Z,86.20
2022-12-13T02:42:05.479Z,107.50
2022-12-13T02:43:05.454Z,62.80
2022-12-13T02:44:05.422Z,69.70
2022-12-13T02:45:05.400Z,66.20
2022-12-13T02:46:05.404Z,56.70
2022-12-13T02:47:05.341Z,61.90
2022-12-13T02:48:05.310Z,63.40
2022-12-13T02:49:05.281Z,71.50
2022-12-13T02:50:05.250Z,89.30
2022-12-13T02:51:05.232Z,62.90
2022-12-13T02:52:05.194Z,65.40
2022-12-13T02:53:05.174Z,69.40
2022-12-13T02:54:05.134Z,51.70
2022-12-13T02:55:05.111Z,63.10
2022-12-13T02:56:05.078Z,55.30
2022-12-13T02:57:05.075Z,58.70
2022-12-13T02:58:05.020Z,57.90
2022-12-13T02:59:04.995Z,58.40
2022-12-13T03:00:04.968Z,46.60
2022-12-13T03:01:04.942Z,64.50
2022-12-13T03:02:10.137Z,75.90
2022-12-13T03:03:05.044Z,69.90
2022-12-13T03:04:04.848Z,67.70
2022-12-13T03:05:04.824Z,51.90
2022-12-13T03:06:04.789Z,48.50
2022-12-13T03:07:04.767Z,44.10
2022-12-13T03:08:04.786Z,49.40
2022-12-13T03:09:04.709Z,43.50
2022-12-13T03:10:04.680Z,47.90
2022-12-13T03:11:04.666Z,60.50
2022-12-13T03:12:04.623Z,58.60
2022-12-13T03:13:04.622Z,53.80
2022-12-13T03:14:04.566Z,58.50
2022-12-13T03:15:04.538Z,62.90
2022-12-13T03:16:04.605Z,49.60
2022-12-13T03:17:04.482Z,58.90
2022-12-13T03:18:04.456Z,53.60
2022-12-13T03:19:04.433Z,53.20
2022-12-13T03:20:12.820Z,64.90
2022-12-13T03:21:04.366Z,48.10
2022-12-13T03:22:04.333Z,47.20
2022-12-13T03:23:04.307Z,68.70
2022-12-13T03:24:04.279Z,55.10
2022-12-13T03:25:04.255Z,49.90
2022-12-13T03:26:04.221Z,43.40
2022-12-13T03:27:04.192Z,42.30
2022-12-13T03:28:04.164Z,45.50
2022-12-13T03:29:04.162Z,42.90
2022-12-13T03:30:04.103Z,40.20
2022-12-13T03:31:04.118Z,45.30
2022-12-13T03:32:04.051Z,47.70
2022-12-13T03:33:04.023Z,47.50
2022-12-13T03:34:03.995Z,44.90
2022-12-13T03:35:03.968Z,45.50
2022-12-13T03:36:03.936Z,50.30
2022-12-13T03:37:03.919Z,44.90
2022-12-13T03:38:03.873Z,46.60
2022-12-13T03:39:03.850Z,41.00
2022-12-13T03:40:03.821Z,42.60
2022-12-13T03:41:03.794Z,44.80
2022-12-13T03:42:03.757Z,42.80
2022-12-13T03:43:03.735Z,41.40
2022-12-13T03:44:03.708Z,44.00
2022-12-13T03:45:03.701Z,41.80
2022-12-13T03:46:03.705Z,41.80
2022-12-13T03:47:03.618Z,41.20
2022-12-13T03:48:03.587Z,43.20
2022-12-13T03:49:03.564Z,40.60
2022-12-13T03:50:25.842Z,41.60
2022-12-13T03:51:03.508Z,41.50
2022-12-13T03:52:03.472Z,46.30
2022-12-13T03:53:03.447Z,42.50
2022-12-13T03:54:03.415Z,42.50
2022-12-13T03:55:03.391Z,41.90
2022-12-13T03:56:03.386Z,47.10
2022-12-13T03:57:03.332Z,46.80
2022-12-13T03:58:07.826Z,45.70
2022-12-13T03:59:03.280Z,39.60
2022-12-13T04:00:03.241Z,42.90
2022-12-13T04:01:03.234Z,40.70
2022-12-13T04:02:03.251Z,44.50
2022-12-13T04:03:03.214Z,54.10
2022-12-13T04:04:03.127Z,43.20
2022-12-13T04:05:03.103Z,53.70
2022-12-13T04:06:03.076Z,55.60
2022-12-13T04:07:03.047Z,59.10
2022-12-13T04:08:03.066Z,47.20
2022-12-13T04:09:02.988Z,55.70
2022-12-13T04:10:02.954Z,39.80
2022-12-13T04:11:02.932Z,46.10
2022-12-13T04:12:02.895Z,40.40
2022-12-13T04:13:02.872Z,44.20
2022-12-13T04:14:02.835Z,45.00
2022-12-13T04:15:02.809Z,39.30
2022-12-13T04:16:03.036Z,39.50
2022-12-13T04:17:02.789Z,43.20
2022-12-13T04:18:02.768Z,43.00
2022-12-13T04:19:02.693Z,42.90
2022-12-13T04:20:02.667Z,44.90
2022-12-13T04:21:02.633Z,39.30
2022-12-13T04:22:02.606Z,40.40
2022-12-13T04:23:10.552Z,41.80
2022-12-13T04:24:02.546Z,35.60
2022-12-13T04:25:02.519Z,37.90
2022-12-13T04:26:02.487Z,35.80
2022-12-13T04:27:02.463Z,34.70
2022-12-13T04:28:02.430Z,37.30
2022-12-13T04:29:02.406Z,38.70
2022-12-13T04:30:02.374Z,39.40
2022-12-13T04:31:02.345Z,36.60
2022-12-13T04:32:02.321Z,41.00
2022-12-13T04:33:02.308Z,47.70
2022-12-13T04:34:02.260Z,38.60
2022-12-13T04:35:02.229Z,40.00
2022-12-13T04:36:02.198Z,35.20
2022-12-13T04:37:02.174Z,40.50
2022-12-13T04:38:02.144Z,39.00
2022-12-13T04:39:02.139Z,40.80
2022-12-13T04:40:02.089Z,39.60
2022-12-13T04:41:02.057Z,41.30
2022-12-13T04:42:02.028Z,40.10
2022-12-13T04:43:02.002Z,42.40
2022-12-13T04:44:01.968Z,41.20
2022-12-13T04:45:01.942Z,43.90
2022-12-13T04:46:01.932Z,48.70
2022-12-13T04:47:01.880Z,43.80
2022-12-13T04:48:01.856Z,39.00
2022-12-13T04:49:01.843Z,40.50
2022-12-13T04:50:01.797Z,40.10
2022-12-13T04:51:01.774Z,40.60
2022-12-13T04:52:02.089Z,42.60
2022-12-13T04:53:01.708Z,39.10
2022-12-13T04:54:23.190Z,39.20
2022-12-13T04:55:01.645Z,38.50
2022-12-13T04:56:01.615Z,36.80
2022-12-13T04:57:01.741Z,35.70
2022-12-13T04:58:01.557Z,37.00
2022-12-13T04:59:01.542Z,37.10
2022-12-13T05:00:01.501Z,38.10
2022-12-13T05:01:01.585Z,36.40
2022-12-13T05:02:01.493Z,35.80
2022-12-13T05:03:01.412Z,35.70
2022-12-13T05:04:01.387Z,37.10
2022-12-13T05:05:01.380Z,36.60
2022-12-13T05:06:01.326Z,35.90
2022-12-13T05:07:01.309Z,36.40
2022-12-13T05:08:01.348Z,34.20
2022-12-13T05:09:01.251Z,38.80
2022-12-13T05:10:01.212Z,35.20
2022-12-13T05:11:01.186Z,45.30
2022-12-13T05:12:02.169Z,38.80
2022-12-13T05:13:01.134Z,43.30
2022-12-13T05:14:01.097Z,38.70
2022-12-13T05:15:01.069Z,38.00
2022-12-13T05:16:01.038Z,39.60
2022-12-13T05:17:01.115Z,40.60
2022-12-13T05:18:00.980Z,42.50
2022-12-13T05:19:00.955Z,41.80
2022-12-13T05:20:00.921Z,42.00
2022-12-13T05:21:00.918Z,45.50
2022-12-13T05:22:01.672Z,45.90
2022-12-13T05:23:00.833Z,46.70
2022-12-13T05:24:00.804Z,47.70
2022-12-13T05:25:00.777Z,46.30
2022-12-13T05:26:00.744Z,46.30
2022-12-13T05:27:00.716Z,44.20
2022-12-13T05:28:00.689Z,45.70
2022-12-13T05:29:00.666Z,44.10
2022-12-13T05:30:03.863Z,50.20
2022-12-13T05:31:00.600Z,47.60
2022-12-13T05:32:00.620Z,47.30
2022-12-13T05:33:00.544Z,44.70
2022-12-13T05:34:01.361Z,48.60
2022-12-13T05:35:00.550Z,53.30
2022-12-13T05:36:02.146Z,53.20
2022-12-13T05:37:00.451Z,48.70
2022-12-13T05:38:00.394Z,50.60
2022-12-13T05:39:00.372Z,54.50
2022-12-13T05:40:00.334Z,52.10
2022-12-13T05:41:00.311Z,52.20
2022-12-13T05:42:01.063Z,49.30
2022-12-13T05:43:01.473Z,51.70
2022-12-13T05:44:00.222Z,53.90
2022-12-13T05:45:00.196Z,49.90
2022-12-13T05:46:00.253Z,49.60
2022-12-13T05:47:02.523Z,49.00
2022-12-13T05:48:00.124Z,47.00
2022-12-13T05:49:00.086Z,48.40
2022-12-13T05:50:00.046Z,46.90
2022-12-13T05:51:11.165Z,48.60
2022-12-13T05:51:59.988Z,47.10
2022-12-13T05:52:59.977Z,46.60
2022-12-13T05:53:59.931Z,46.20
2022-12-13T05:55:01.238Z,49.70
2022-12-13T05:55:59.880Z,47.30
2022-12-13T05:56:59.847Z,48.60
2022-12-13T05:58:02.323Z,46.80
2022-12-13T05:58:59.785Z,47.30
2022-12-13T05:59:59.771Z,49.50
2022-12-13T06:00:59.743Z,47.70
2022-12-13T06:01:59.724Z,43.70
2022-12-13T06:03:00.471Z,45.70
2022-12-13T06:03:59.647Z,48.70
2022-12-13T06:04:59.612Z,47.90
2022-12-13T06:05:59.583Z,47.50
2022-12-13T06:06:59.556Z,44.60
2022-12-13T06:07:59.741Z,49.30
2022-12-13T06:08:59.601Z,45.60
2022-12-13T06:10:10.492Z,49.10
2022-12-13T06:11:11.193Z,48.60
2022-12-13T06:12:01.031Z,43.50
2022-12-13T06:13:00.931Z,47.10
2022-12-13T06:14:00.942Z,47.20
2022-12-13T06:15:01.132Z,48.40
2022-12-13T06:16:01.335Z,46.00
2022-12-13T06:16:59.313Z,46.80
2022-12-13T06:17:59.232Z,46.20
2022-12-13T06:19:04.326Z,44.60
2022-12-13T06:19:59.171Z,45.10
2022-12-13T06:20:59.147Z,44.90
2022-12-13T06:21:59.118Z,45.70
2022-12-13T06:22:59.086Z,46.90
2022-12-13T06:23:59.055Z,46.00
2022-12-13T06:24:59.048Z,47.70
2022-12-13T06:25:59.000Z,46.80
2022-12-13T06:26:58.975Z,47.50
2022-12-13T06:27:58.943Z,48.30
2022-12-13T06:28:58.913Z,50.50
2022-12-13T06:30:02.394Z,43.60
2022-12-13T06:30:59.040Z,48.00
2022-12-13T06:32:00.884Z,47.60
2022-12-13T06:32:58.808Z,47.40
2022-12-13T06:33:58.775Z,48.90
2022-12-13T06:34:58.736Z,50.20
2022-12-13T06:35:58.714Z,49.20
2022-12-13T06:36:58.680Z,48.20
2022-12-13T06:38:00.931Z,46.50
2022-12-13T06:38:58.624Z,47.70
2022-12-13T06:39:58.591Z,45.90
2022-12-13T06:40:58.580Z,46.60
2022-12-13T06:41:58.537Z,51.20
2022-12-13T06:42:58.504Z,46.60
2022-12-13T06:43:58.474Z,45.40
2022-12-13T06:44:58.461Z,48.70
2022-12-13T06:45:58.468Z,50.80
2022-12-13T06:47:11.433Z,50.30
2022-12-13T06:47:58.361Z,49.70
2022-12-13T06:48:58.327Z,47.40
2022-12-13T06:49:58.300Z,46.30
2022-12-13T06:50:58.268Z,53.60
2022-12-13T06:51:58.241Z,48.20
2022-12-13T06:52:58.211Z,50.90
2022-12-13T06:53:58.185Z,53.70
2022-12-13T06:54:59.965Z,50.20
2022-12-13T06:55:58.124Z,47.40
2022-12-13T06:56:58.127Z,47.20
2022-12-13T06:57:58.069Z,45.30
2022-12-13T06:59:01.262Z,44.30
2022-12-13T06:59:58.011Z,49.30
2022-12-13T07:00:58.026Z,75.30
2022-12-13T07:02:03.898Z,86.00
2022-12-13T07:02:58.023Z,64.70
2022-12-13T07:03:57.892Z,52.80
2022-12-13T07:04:57.867Z,54.20
2022-12-13T07:05:58.512Z,49.70
2022-12-13T07:07:01.890Z,48.30
2022-12-13T07:07:57.887Z,48.10
2022-12-13T07:08:57.748Z,45.20
2022-12-13T07:09:57.722Z,48.90
2022-12-13T07:10:57.687Z,49.80
2022-12-13T07:11:57.658Z,48.60
2022-12-13T07:12:57.652Z,46.70
2022-12-13T07:13:57.603Z,49.90
2022-12-13T07:14:57.573Z,46.80
2022-12-13T07:16:01.343Z,50.60
2022-12-13T07:17:03.353Z,51.20
2022-12-13T07:17:57.487Z,45.30
2022-12-13T07:19:00.877Z,48.30
2022-12-13T07:19:57.427Z,50.00
2022-12-13T07:20:57.400Z,48.90
2022-12-13T07:21:57.370Z,49.20
2022-12-13T07:22:59.125Z,47.40
2022-12-13T07:23:57.313Z,47.20
2022-12-13T07:24:57.282Z,51.90
2022-12-13T07:25:57.257Z,48.80
2022-12-13T07:26:57.222Z,51.30
2022-12-13T07:28:01.627Z,51.20
2022-12-13T07:28:57.187Z,49.20
2022-12-13T07:29:57.137Z,52.30
2022-12-13T07:30:57.205Z,48.60
2022-12-13T07:32:01.472Z,47.90
2022-12-13T07:32:57.046Z,48.40
2022-12-13T07:33:57.015Z,48.60
2022-12-13T07:34:56.989Z,46.20
2022-12-13T07:35:56.967Z,49.50
2022-12-13T07:36:56.937Z,45.00
2022-12-13T07:37:56.905Z,50.70
2022-12-13T07:38:56.875Z,48.50
2022-12-13T07:40:02.981Z,48.90
2022-12-13T07:40:56.855Z,47.80
2022-12-13T07:41:56.793Z,92.10
2022-12-13T07:42:56.754Z,149.90
2022-12-13T07:43:56.728Z,129.30
2022-12-13T07:44:56.725Z,68.70
2022-12-13T07:45:56.697Z,57.40
2022-12-13T07:46:56.714Z,49.20
2022-12-13T07:47:56.606Z,49.00
2022-12-13T07:49:01.663Z,50.50
2022-12-13T07:49:56.554Z,52.40
2022-12-13T07:50:56.526Z,53.40
2022-12-13T07:51:56.492Z,50.30
2022-12-13T07:52:56.466Z,52.70
2022-12-13T07:53:56.431Z,51.50
2022-12-13T07:54:56.405Z,51.30
2022-12-13T07:55:56.373Z,53.10
2022-12-13T07:57:01.181Z,50.10
2022-12-13T07:57:56.320Z,52.10
2022-12-13T07:58:56.293Z,48.80
2022-12-13T07:59:56.269Z,47.20
2022-12-13T08:00:56.255Z,49.50
2022-12-13T08:01:56.246Z,45.70
2022-12-13T08:02:56.174Z,48.30
2022-12-13T08:03:56.139Z,50.00
2022-12-13T08:04:56.201Z,49.30
2022-12-13T08:05:58.557Z,51.30
2022-12-13T08:06:56.059Z,47.70
2022-12-13T08:07:56.103Z,47.40
2022-12-13T08:08:56.001Z,50.50
2022-12-13T08:09:55.965Z,46.60
2022-12-13T08:10:55.991Z,46.90
2022-12-13T08:11:55.908Z,46.20
2022-12-13T08:12:55.886Z,50.20
2022-12-13T08:13:55.861Z,47.40
2022-12-13T08:14:55.827Z,47.30
2022-12-13T08:15:55.820Z,51.00
2022-12-13T08:16:55.844Z,49.70
2022-12-13T08:17:55.736Z,46.70
2022-12-13T08:19:03.313Z,48.70
2022-12-13T08:19:55.681Z,46.20
2022-12-13T08:20:55.653Z,49.90
2022-12-13T08:21:57.794Z,49.80
2022-12-13T08:22:55.594Z,48.00
2022-12-13T08:23:55.569Z,50.10
2022-12-13T08:24:55.550Z,47.30
2022-12-13T08:25:55.506Z,51.00
2022-12-13T08:26:55.481Z,47.80
2022-12-13T08:27:55.451Z,49.90
2022-12-13T08:28:55.423Z,48.10
2022-12-13T08:29:55.399Z,50.10
2022-12-13T08:30:55.432Z,50.60
2022-12-13T08:31:55.350Z,49.40
2022-12-13T08:32:55.330Z,51.20
2022-12-13T08:33:55.282Z,49.60
2022-12-13T08:34:55.263Z,51.50
2022-12-13T08:35:55.230Z,46.40
2022-12-13T08:37:02.252Z,50.40
2022-12-13T08:37:55.174Z,50.00
2022-12-13T08:38:55.155Z,51.40
2022-12-13T08:39:55.128Z,45.80
2022-12-13T08:40:55.106Z,46.80
2022-12-13T08:41:55.074Z,46.80
2022-12-13T08:42:55.076Z,43.50
2022-12-13T08:43:55.028Z,43.20
2022-12-13T08:44:54.997Z,46.50
2022-12-13T08:45:54.968Z,44.10
2022-12-13T08:46:54.998Z,46.40
2022-12-13T08:47:54.920Z,47.50
2022-12-13T08:48:54.939Z,46.80
2022-12-13T08:49:54.959Z,45.10
2022-12-13T08:50:54.852Z,45.10
2022-12-13T08:51:54.820Z,46.30
2022-12-13T08:52:54.802Z,45.50
2022-12-13T08:54:11.157Z,43.20
2022-12-13T08:54:54.755Z,41.90
2022-12-13T08:55:54.725Z,45.80
2022-12-13T08:56:54.715Z,47.20
2022-12-13T08:57:54.686Z,44.30
2022-12-13T08:58:54.674Z,43.70
2022-12-13T08:59:54.643Z,43.10
2022-12-13T09:00:54.669Z,41.10
2022-12-13T09:01:57.624Z,40.30
2022-12-13T09:02:54.589Z,39.40
2022-12-13T09:03:54.621Z,39.40
2022-12-13T09:04:54.543Z,40.50
2022-12-13T09:05:54.517Z,41.30
2022-12-13T09:06:54.506Z,40.70
2022-12-13T09:07:54.553Z,39.60
2022-12-13T09:08:54.580Z,37.70
2022-12-13T09:09:54.925Z,38.90
2022-12-13T09:10:54.428Z,39.40
2022-12-13T09:11:54.409Z,39.90
2022-12-13T09:13:01.583Z,38.20
2022-12-13T09:13:54.369Z,42.40
2022-12-13T09:15:01.160Z,38.10
2022-12-13T09:15:54.461Z,38.30
2022-12-13T09:16:54.414Z,38.50
2022-12-13T09:17:54.430Z,37.30
2022-12-13T09:18:55.055Z,36.70
2022-12-13T09:19:57.790Z,36.60
2022-12-13T09:20:54.285Z,38.50
2022-12-13T09:22:02.119Z,36.60
2022-12-13T09:22:54.214Z,37.30
2022-12-13T09:23:54.194Z,39.20
2022-12-13T09:24:54.188Z,34.10
2022-12-13T09:25:54.159Z,38.60
2022-12-13T09:26:57.373Z,39.20
2022-12-13T09:27:54.126Z,37.10
2022-12-13T09:28:54.114Z,37.20
2022-12-13T09:29:54.089Z,35.80
2022-12-13T09:30:54.079Z,36.10
2022-12-13T09:31:54.096Z,34.60
2022-12-13T09:32:54.044Z,34.40
2022-12-13T09:33:54.027Z,37.80
2022-12-13T09:34:54.083Z,37.60
2022-12-13T09:35:54.015Z,36.50
2022-12-13T09:36:53.984Z,37.00
2022-12-13T09:37:53.960Z,37.50
2022-12-13T09:38:53.952Z,34.00
2022-12-13T09:39:55.128Z,39.90
2022-12-13T09:40:58.178Z,36.70
2022-12-13T09:42:01.371Z,31.40
2022-12-13T09:43:12.507Z,31.40
2022-12-13T09:43:53.867Z,31.80
2022-12-13T09:45:03.151Z,34.60
2022-12-13T09:45:54.032Z,31.40
2022-12-13T09:46:53.861Z,34.10
2022-12-13T09:47:53.809Z,31.80
2022-12-13T09:49:01.835Z,32.00
2022-12-13T09:49:54.122Z,32.40
2022-12-13T09:51:16.611Z,38.70
2022-12-13T09:52:10.104Z,31.20
2022-12-13T09:52:53.722Z,28.90
2022-12-13T09:53:53.704Z,34.50
2022-12-13T09:54:53.722Z,31.30
2022-12-13T09:55:53.671Z,31.60
2022-12-13T09:56:53.660Z,31.30
2022-12-13T09:57:53.640Z,31.90
2022-12-13T09:58:53.628Z,33.00
2022-12-13T09:59:58.611Z,31.00
2022-12-13T10:00:53.690Z,28.70
2022-12-13T10:01:53.608Z,32.20
2022-12-13T10:02:53.572Z,31.30
2022-12-13T10:03:53.544Z,29.00
2022-12-13T10:04:53.530Z,29.20
2022-12-13T10:05:53.522Z,31.10
2022-12-13T10:06:53.505Z,32.90
2022-12-13T10:07:53.503Z,30.50
2022-12-13T10:08:58.094Z,30.80
2022-12-13T10:09:53.452Z,34.10
2022-12-13T10:10:53.440Z,32.80
2022-12-13T10:11:53.432Z,34.10
2022-12-13T10:12:53.409Z,33.90
2022-12-13T10:13:53.389Z,31.90
2022-12-13T10:14:53.374Z,31.90
2022-12-13T10:15:53.377Z,33.40
2022-12-13T10:16:53.465Z,30.20
2022-12-13T10:17:55.344Z,33.30
2022-12-13T10:18:53.315Z,31.60
2022-12-13T10:19:53.294Z,27.00
2022-12-13T10:20:53.282Z,30.00
2022-12-13T10:21:53.268Z,31.10
2022-12-13T10:23:29.986Z,31.10
2022-12-13T10:24:23.781Z,28.50
2022-12-13T10:24:53.223Z,30.70
2022-12-13T10:25:53.268Z,32.20
2022-12-13T10:26:53.215Z,29.70
2022-12-13T10:27:53.176Z,30.70
2022-12-13T10:28:53.176Z,30.00
2022-12-13T10:29:53.147Z,29.80
2022-12-13T10:30:53.139Z,28.80
2022-12-13T10:31:53.174Z,27.30
2022-12-13T10:32:53.108Z,26.20
2022-12-13T10:33:53.082Z,28.40
2022-12-13T10:34:53.071Z,27.20
2022-12-13T10:35:53.050Z,28.30
2022-12-13T10:36:53.042Z,26.40
2022-12-13T10:37:53.026Z,30.20
2022-12-13T10:38:53.008Z,31.60
2022-12-13T10:39:53.010Z,28.40
2022-12-13T10:40:52.981Z,32.40
2022-12-13T10:41:52.963Z,27.90
2022-12-13T10:42:52.950Z,28.10
2022-12-13T10:43:52.928Z,31.60
2022-12-13T10:44:52.917Z,28.80
2022-12-13T10:45:52.984Z,29.40
2022-12-13T10:46:52.894Z,28.30
2022-12-13T10:47:52.868Z,27.20
2022-12-13T10:48:52.852Z,27.10
2022-12-13T10:49:59.083Z,28.60
2022-12-13T10:50:52.884Z,28.20
2022-12-13T10:51:52.807Z,30.70
2022-12-13T10:52:52.790Z,27.70
2022-12-13T10:53:52.776Z,27.90
2022-12-13T10:54:52.766Z,30.50
2022-12-13T10:55:52.762Z,28.50
2022-12-13T10:56:52.727Z,28.20
2022-12-13T10:57:52.711Z,28.80
2022-12-13T10:58:52.697Z,30.80
2022-12-13T10:59:52.680Z,27.80
2022-12-13T11:00:52.694Z,27.10
2022-12-13T11:01:52.672Z,29.30
2022-12-13T11:02:52.638Z,31.50
2022-12-13T11:03:52.609Z,28.50
2022-12-13T11:04:52.597Z,27.30
2022-12-13T11:05:52.572Z,28.20
2022-12-13T11:06:52.564Z,28.30
2022-12-13T11:07:52.544Z,27.90
2022-12-13T11:08:52.529Z,27.90
2022-12-13T11:09:53.173Z,28.10
2022-12-13T11:10:52.492Z,29.80
2022-12-13T11:11:58.715Z,29.20
2022-12-13T11:12:52.453Z,29.20
2022-12-13T11:13:52.435Z,29.80
2022-12-13T11:14:52.419Z,29.40
2022-12-13T11:15:52.394Z,30.40
2022-12-13T11:16:52.415Z,30.40
2022-12-13T11:17:52.360Z,29.60
2022-12-13T11:18:52.342Z,30.50
2022-12-13T11:19:52.328Z,29.20
2022-12-13T11:20:54.247Z,30.10
2022-12-13T11:21:52.286Z,28.90
2022-12-13T11:22:52.266Z,27.60
2022-12-13T11:23:52.244Z,27.80
2022-12-13T11:24:52.227Z,27.40
2022-12-13T11:25:52.208Z,26.30
2022-12-13T11:26:54.009Z,28.60
2022-12-13T11:27:52.191Z,28.30
2022-12-13T11:28:52.149Z,28.70
2022-12-13T11:29:52.128Z,28.80
2022-12-13T11:30:52.105Z,26.50
2022-12-13T11:31:52.170Z,27.00
2022-12-13T11:32:56.081Z,26.50
2022-12-13T11:33:52.051Z,28.10
2022-12-13T11:34:52.032Z,26.80
2022-12-13T11:35:52.012Z,32.10
2022-12-13T11:36:52.005Z,29.20
2022-12-13T11:37:51.971Z,26.10
2022-12-13T11:38:57.649Z,27.00
2022-12-13T11:39:51.932Z,26.80
2022-12-13T11:40:51.912Z,29.00
2022-12-13T11:41:51.900Z,27.00
2022-12-13T11:42:51.871Z,28.00
2022-12-13T11:43:51.877Z,27.80
2022-12-13T11:44:51.837Z,26.70
2022-12-13T11:45:51.878Z,25.70
2022-12-13T11:46:51.796Z,28.30
2022-12-13T11:47:51.781Z,27.50
2022-12-13T11:48:51.757Z,27.50
2022-12-13T11:49:51.737Z,24.90
2022-12-13T11:50:51.720Z,26.40
2022-12-13T11:51:51.709Z,23.60
2022-12-13T11:52:51.678Z,23.10
2022-12-13T11:53:51.659Z,26.70
2022-12-13T11:54:51.651Z,25.80
2022-12-13T11:55:51.623Z,25.70
2022-12-13T11:56:54.905Z,25.50
2022-12-13T11:57:51.594Z,26.40
2022-12-13T11:59:03.033Z,38.10
2022-12-13T11:59:51.566Z,34.50
2022-12-13T12:00:51.531Z,41.60
2022-12-13T12:01:51.930Z,31.90
2022-12-13T12:02:51.555Z,27.80
2022-12-13T12:03:51.568Z,25.40
2022-12-13T12:04:56.459Z,25.00
2022-12-13T12:05:56.055Z,24.80
2022-12-13T12:06:51.415Z,25.70
2022-12-13T12:08:21.204Z,26.80
2022-12-13T12:08:51.500Z,27.10
2022-12-13T12:09:51.372Z,25.70
2022-12-13T12:10:51.344Z,25.20
2022-12-13T12:11:51.336Z,26.70
2022-12-13T12:12:51.308Z,26.20
2022-12-13T12:13:52.133Z,23.70
2022-12-13T12:14:52.162Z,27.20
2022-12-13T12:15:51.302Z,25.80
2022-12-13T12:16:51.239Z,25.40
2022-12-13T12:17:51.220Z,27.20
2022-12-13T12:18:51.198Z,26.50
2022-12-13T12:19:51.223Z,25.50
2022-12-13T12:20:51.155Z,24.60
2022-12-13T12:22:13.303Z,23.40
2022-12-13T12:22:51.119Z,22.30
2022-12-13T12:23:52.808Z,24.10
2022-12-13T12:24:51.084Z,24.60
2022-12-13T12:25:51.066Z,22.90
2022-12-13T12:26:51.042Z,25.10
2022-12-13T12:27:51.027Z,24.10
2022-12-13T12:28:51.008Z,24.10
2022-12-13T12:29:51.002Z,23.70
2022-12-13T12:30:51.010Z,23.00
2022-12-13T12:31:51.407Z,24.80
2022-12-13T12:32:50.929Z,23.40
2022-12-13T12:33:50.908Z,24.10
2022-12-13T12:34:50.891Z,25.40
2022-12-13T12:35:50.873Z,26.60
2022-12-13T12:36:50.853Z,23.80
2022-12-13T12:37:51.398Z,26.80
2022-12-13T12:38:50.812Z,26.00
2022-12-13T12:39:50.790Z,25.50
2022-12-13T12:41:15.730Z,25.10
2022-12-13T12:41:50.747Z,26.00
2022-12-13T12:43:14.014Z,24.60
2022-12-13T12:43:50.706Z,27.20
2022-12-13T12:44:50.689Z,24.60
2022-12-13T12:45:58.113Z,24.20
2022-12-13T12:47:08.577Z,25.40
2022-12-13T12:48:45.376Z,24.60
2022-12-13T12:49:06.540Z,25.00
2022-12-13T12:49:50.585Z,30.10
2022-12-13T12:50:50.554Z,25.30
2022-12-13T12:51:50.536Z,29.10